createdAt,value
2022-07-30T00:01:41.779Z,9.80
2022-07-30T00:03:46.330Z,8.75
2022-07-30T00:05:51.058Z,10.20
2022-07-30T00:07:55.623Z,9.68
2022-07-30T00:10:00.137Z,9.98
2022-07-30T00:12:04.764Z,9.43
2022-07-30T00:14:09.173Z,9.80
2022-07-30T00:16:13.857Z,9.45
2022-07-30T00:18:19.679Z,9.32
2022-07-30T00:20:28.159Z,9.70
2022-07-30T00:22:32.710Z,9.45
2022-07-30T00:24:37.175Z,10.10
2022-07-30T00:26:42.397Z,9.85
2022-07-30T00:28:46.946Z,9.15
2022-07-30T00:30:52.765Z,9.18
2022-07-30T00:33:00.749Z,9.45
2022-07-30T00:35:07.484Z,9.05
2022-07-30T00:37:11.738Z,9.45
2022-07-30T00:39:16.161Z,9.20
2022-07-30T00:41:21.561Z,9.30
2022-07-30T00:43:26.140Z,9.63
2022-07-30T00:45:30.685Z,9.27
2022-07-30T00:47:35.328Z,9.10
2022-07-30T00:49:44.196Z,8.52
2022-07-30T00:51:51.292Z,9.30
2022-07-30T00:53:55.728Z,8.90
2022-07-30T00:56:00.310Z,8.65
2022-07-30T00:58:05.120Z,9.55
2022-07-30T01:00:12.857Z,8.73
2022-07-30T01:02:17.571Z,8.68
2022-07-30T01:04:22.078Z,8.80
2022-07-30T01:06:26.744Z,9.48
2022-07-30T01:08:32.934Z,8.52
2022-07-30T01:10:37.961Z,9.32
2022-07-30T01:12:43.824Z,8.90
2022-07-30T01:14:48.655Z,8.68
2022-07-30T01:16:53.151Z,9.43
2022-07-30T01:19:16.867Z,9.23
2022-07-30T01:21:32.514Z,9.25
2022-07-30T01:23:43.349Z,9.48
2022-07-30T01:25:56.227Z,9.88
2022-07-30T01:28:04.979Z,9.68
2022-07-30T01:30:10.633Z,8.98
2022-07-30T01:32:16.063Z,9.25
2022-07-30T01:34:21.810Z,8.88
2022-07-30T01:36:27.053Z,8.82
2022-07-30T01:38:35.160Z,8.63
2022-07-30T01:40:40.937Z,8.65
2022-07-30T01:42:50.037Z,8.73
2022-07-30T01:44:55.732Z,8.80
2022-07-30T01:47:01.539Z,9.00
2022-07-30T01:49:08.565Z,8.73
2022-07-30T01:51:15.209Z,8.77
2022-07-30T01:55:41.285Z,8.68
2022-07-30T01:57:48.428Z,8.57
2022-07-30T01:59:56.866Z,8.57
2022-07-30T02:02:01.775Z,8.38
2022-07-30T02:04:06.945Z,8.20
2022-07-30T02:06:19.415Z,8.80
2022-07-30T02:08:30.257Z,9.25
2022-07-30T02:10:42.815Z,9.23
2022-07-30T02:12:57.526Z,8.13
2022-07-30T02:15:17.421Z,7.85
2022-07-30T02:19:37.968Z,8.82
2022-07-30T02:21:51.046Z,8.25
2022-07-30T02:23:58.032Z,8.40
2022-07-30T02:26:04.004Z,8.43
2022-07-30T02:28:13.977Z,8.57
2022-07-30T02:30:20.690Z,8.70
2022-07-30T02:32:27.899Z,8.95
2022-07-30T02:34:37.694Z,8.43
2022-07-30T02:36:44.361Z,8.80
2022-07-30T02:38:51.665Z,9.88
2022-07-30T02:40:59.029Z,9.18
2022-07-30T02:43:03.744Z,8.85
2022-07-30T02:45:11.689Z,8.88
2022-07-30T02:47:17.660Z,8.73
2022-07-30T02:52:37.138Z,8.80
2022-07-30T02:54:43.454Z,8.73
2022-07-30T02:56:50.989Z,9.13
2022-07-30T02:59:02.464Z,9.10
2022-07-30T03:01:13.007Z,8.77
2022-07-30T03:03:18.932Z,9.55
2022-07-30T03:05:24.456Z,8.65
2022-07-30T03:07:32.072Z,9.18
2022-07-30T03:09:52.108Z,9.23
2022-07-30T03:11:58.433Z,9.20
2022-07-30T03:14:03.123Z,8.95
2022-07-30T03:16:11.515Z,8.95
2022-07-30T03:18:18.871Z,7.45
2022-07-30T03:20:29.234Z,7.95
2022-07-30T03:22:36.233Z,7.50
2022-07-30T03:24:42.187Z,8.95
2022-07-30T03:26:49.707Z,7.18
2022-07-30T03:28:54.920Z,8.48
2022-07-30T03:30:59.662Z,8.68
2022-07-30T03:33:07.825Z,7.97
2022-07-30T03:35:16.738Z,8.38
2022-07-30T03:39:28.049Z,8.70
2022-07-30T03:41:33.990Z,8.23
2022-07-30T03:43:40.934Z,8.48
2022-07-30T03:45:48.440Z,7.40
2022-07-30T03:47:56.957Z,7.95
2022-07-30T03:50:03.802Z,8.35
2022-07-30T03:52:11.536Z,8.07
2022-07-30T03:54:17.557Z,8.65
2022-07-30T03:56:41.917Z,8.50
2022-07-30T03:58:55.693Z,8.60
2022-07-30T04:01:00.955Z,9.40
2022-07-30T04:03:06.017Z,8.02
2022-07-30T04:05:41.083Z,8.90
2022-07-30T04:07:49.673Z,7.50
2022-07-30T04:09:57.391Z,8.88
2022-07-30T04:12:25.028Z,8.70
2022-07-30T04:14:40.822Z,7.80
2022-07-30T04:16:52.078Z,9.45
2022-07-30T04:19:02.574Z,8.23
2022-07-30T04:21:17.316Z,8.88
2022-07-30T04:23:24.123Z,7.60
2022-07-30T04:25:29.339Z,9.20
2022-07-30T04:27:35.350Z,8.65
2022-07-30T04:29:40.021Z,8.57
2022-07-30T04:31:44.943Z,9.23
2022-07-30T04:34:16.668Z,7.80
2022-07-30T04:36:22.587Z,8.90
2022-07-30T04:38:26.875Z,8.55
2022-07-30T04:40:33.148Z,8.85
2022-07-30T04:42:37.618Z,8.68
2022-07-30T04:44:44.561Z,9.07
2022-07-30T04:47:09.804Z,8.52
2022-07-30T04:49:26.025Z,8.65
2022-07-30T04:51:36.072Z,8.80
2022-07-30T04:53:43.533Z,8.73
2022-07-30T04:55:50.781Z,8.73
2022-07-30T04:57:56.287Z,8.20
2022-07-30T05:00:00.811Z,9.07
2022-07-30T05:02:09.764Z,8.30
2022-07-30T05:04:15.686Z,8.98
2022-07-30T05:06:22.809Z,8.70
2022-07-30T05:08:29.848Z,9.25
2022-07-30T05:10:39.228Z,9.27
2022-07-30T05:12:44.282Z,8.95
2022-07-30T05:14:49.181Z,8.50
2022-07-30T05:16:56.899Z,9.63
2022-07-30T05:19:02.257Z,9.07
2022-07-30T05:21:13.829Z,9.75
2022-07-30T05:23:24.362Z,10.10
2022-07-30T05:25:50.998Z,9.52
2022-07-30T05:28:05.917Z,9.18
2022-07-30T05:30:12.113Z,9.68
2022-07-30T05:32:22.062Z,9.23
2022-07-30T05:34:30.124Z,8.73
2022-07-30T05:36:35.319Z,9.48
2022-07-30T05:38:39.678Z,8.98
2022-07-30T05:41:05.404Z,8.57
2022-07-30T05:43:59.007Z,8.93
2022-07-30T05:46:03.767Z,8.75
2022-07-30T05:48:08.397Z,9.38
2022-07-30T05:50:13.793Z,9.15
2022-07-30T05:52:18.678Z,9.30
2022-07-30T05:54:24.698Z,9.23
2022-07-30T05:56:49.361Z,9.07
2022-07-30T05:59:08.634Z,8.93
2022-07-30T06:03:54.403Z,9.00
2022-07-30T06:06:22.440Z,8.60
2022-07-30T06:08:27.780Z,9.13
2022-07-30T06:10:33.340Z,8.93
2022-07-30T06:12:39.475Z,8.85
2022-07-30T06:14:44.965Z,8.68
2022-07-30T06:16:54.790Z,9.02
2022-07-30T06:19:01.097Z,8.55
2022-07-30T06:21:16.783Z,8.95
2022-07-30T06:23:32.356Z,8.40
2022-07-30T06:26:15.315Z,7.90
2022-07-30T06:28:37.079Z,9.02
2022-07-30T06:30:49.115Z,9.00
2022-07-30T06:32:54.081Z,8.85
2022-07-30T06:35:04.298Z,8.18
2022-07-30T06:37:09.930Z,8.60
2022-07-30T06:39:14.748Z,8.65
2022-07-30T06:41:57.157Z,7.57
2022-07-30T06:44:07.016Z,8.57
2022-07-30T06:46:43.553Z,9.48
2022-07-30T06:48:49.215Z,7.85
2022-07-30T06:50:59.397Z,8.20
2022-07-30T06:53:05.649Z,7.65
2022-07-30T06:55:30.122Z,8.45
2022-07-30T06:57:42.500Z,9.05
2022-07-30T07:00:10.865Z,8.43
2022-07-30T07:02:21.508Z,7.35
2022-07-30T07:04:58.654Z,8.52
2022-07-30T07:07:12.491Z,7.07
2022-07-30T07:09:19.694Z,8.18
2022-07-30T07:11:42.184Z,7.70
2022-07-30T07:13:49.822Z,7.40
2022-07-30T07:16:05.324Z,7.97
2022-07-30T07:18:10.281Z,8.00
2022-07-30T07:20:17.370Z,8.20
2022-07-30T07:22:27.651Z,8.55
2022-07-30T07:24:31.961Z,7.40
2022-07-30T07:26:43.977Z,8.07
2022-07-30T07:28:48.581Z,7.95
2022-07-30T07:30:53.385Z,7.57
2022-07-30T07:32:59.266Z,7.70
2022-07-30T07:35:03.881Z,7.75
2022-07-30T07:37:08.501Z,7.88
2022-07-30T07:39:15.043Z,7.75
2022-07-30T07:41:21.480Z,7.72
2022-07-30T07:43:26.324Z,6.90
2022-07-30T07:45:34.364Z,7.88
2022-07-30T07:47:49.218Z,7.32
2022-07-30T07:50:21.045Z,6.90
2022-07-30T07:52:25.848Z,6.97
2022-07-30T07:54:30.709Z,7.40
2022-07-30T07:56:35.263Z,7.53
2022-07-30T07:58:40.804Z,7.53
2022-07-30T08:00:47.923Z,8.00
2022-07-30T08:02:53.297Z,7.60
2022-07-30T08:04:58.569Z,7.30
2022-07-30T08:07:37.039Z,6.40
2022-07-30T08:09:47.438Z,6.78
2022-07-30T08:12:02.044Z,7.13
2022-07-30T08:14:45.242Z,7.35
2022-07-30T08:17:09.285Z,6.90
2022-07-30T08:19:37.441Z,6.93
2022-07-30T08:21:50.333Z,7.45
2022-07-30T08:23:57.467Z,7.65
2022-07-30T08:26:02.389Z,7.15
2022-07-30T08:28:07.654Z,6.80
2022-07-30T08:30:32.532Z,6.85
2022-07-30T08:32:37.769Z,7.03
2022-07-30T08:34:42.737Z,6.78
2022-07-30T08:36:47.252Z,7.22
2022-07-30T08:38:53.097Z,6.55
2022-07-30T08:41:00.530Z,6.55
2022-07-30T08:43:06.820Z,6.53
2022-07-30T08:45:14.325Z,6.60
2022-07-30T08:47:22.168Z,6.60
2022-07-30T08:49:43.160Z,6.90
2022-07-30T08:51:47.973Z,6.32
2022-07-30T08:54:06.245Z,6.55
2022-07-30T08:56:13.870Z,6.82
2022-07-30T08:58:28.741Z,7.00
2022-07-30T09:00:33.746Z,6.53
2022-07-30T09:02:38.051Z,6.45
2022-07-30T09:04:43.114Z,6.38
2022-07-30T09:06:47.991Z,6.00
2022-07-30T09:08:52.722Z,6.85
2022-07-30T09:10:57.249Z,6.20
2022-07-30T09:13:03.097Z,6.35
2022-07-30T09:15:11.220Z,6.95
2022-07-30T09:17:15.962Z,6.07
2022-07-30T09:19:23.164Z,6.95
2022-07-30T09:21:31.827Z,5.90
2022-07-30T09:24:02.301Z,5.60
2022-07-30T09:26:21.833Z,5.85
2022-07-30T09:28:46.280Z,6.20
2022-07-30T09:30:55.634Z,5.65
2022-07-30T09:33:33.670Z,5.40
2022-07-30T09:35:58.724Z,5.78
2022-07-30T09:38:21.565Z,6.43
2022-07-30T09:40:57.296Z,6.00
2022-07-30T09:43:14.444Z,6.40
2022-07-30T09:45:22.011Z,6.22
2022-07-30T09:47:34.013Z,5.75
2022-07-30T09:49:38.571Z,6.35
2022-07-30T09:52:06.656Z,5.85
2022-07-30T09:54:12.785Z,5.88
2022-07-30T09:56:30.216Z,5.72
2022-07-30T09:58:45.711Z,6.30
2022-07-30T10:00:58.454Z,5.53
2022-07-30T10:03:33.037Z,5.57
2022-07-30T10:05:59.719Z,6.03
2022-07-30T10:08:09.398Z,5.75
2022-07-30T10:10:25.877Z,5.80
2022-07-30T10:12:32.836Z,6.73
2022-07-30T10:14:42.363Z,6.20
2022-07-30T10:16:50.990Z,6.30
2022-07-30T10:18:57.450Z,6.15
2022-07-30T10:21:32.635Z,6.00
2022-07-30T10:23:59.336Z,5.80
2022-07-30T10:26:23.508Z,5.75
2022-07-30T10:28:48.127Z,6.43
2022-07-30T10:30:53.625Z,6.05
2022-07-30T10:33:01.622Z,5.85
2022-07-30T10:35:07.228Z,6.22
2022-07-30T10:37:13.360Z,6.03
2022-07-30T10:39:21.813Z,6.22
2022-07-30T10:41:47.421Z,6.25
2022-07-30T10:44:17.069Z,6.90
2022-07-30T10:46:33.439Z,6.18
2022-07-30T10:48:39.742Z,6.30
2022-07-30T10:50:55.253Z,6.13
2022-07-30T10:53:01.771Z,6.05
2022-07-30T10:55:15.801Z,6.63
2022-07-30T10:57:22.841Z,5.45
2022-07-30T10:59:31.174Z,6.10
2022-07-30T11:02:10.350Z,5.88
2022-07-30T11:04:21.800Z,5.82
2022-07-30T11:06:30.470Z,6.40
2022-07-30T11:08:37.714Z,6.28
2022-07-30T11:10:47.831Z,5.90
2022-07-30T11:12:57.106Z,5.90
2022-07-30T11:15:16.907Z,6.13
2022-07-30T11:17:24.287Z,5.93
2022-07-30T11:19:57.063Z,6.30
2022-07-30T11:22:24.614Z,6.18
2022-07-30T11:24:45.344Z,6.28
2022-07-30T11:26:52.152Z,5.78
2022-07-30T11:28:56.931Z,6.70
2022-07-30T11:31:01.942Z,5.72
2022-07-30T11:33:32.020Z,6.20
2022-07-30T11:35:38.996Z,6.28
2022-07-30T11:38:07.791Z,6.25
2022-07-30T11:40:13.958Z,7.03
2022-07-30T11:42:27.956Z,5.88
2022-07-30T11:44:32.326Z,5.50
2022-07-30T11:46:37.624Z,5.88
2022-07-30T11:48:44.670Z,5.95
2022-07-30T11:50:50.711Z,6.53
2022-07-30T11:52:56.128Z,5.78
2022-07-30T11:55:00.313Z,6.25
2022-07-30T11:57:07.577Z,5.63
2022-07-30T11:59:12.309Z,6.25
2022-07-30T12:01:18.883Z,5.82
2022-07-30T12:03:29.895Z,6.43
2022-07-30T12:05:34.371Z,6.07
2022-07-30T12:07:41.130Z,6.22
2022-07-30T12:09:45.561Z,6.00
2022-07-30T12:11:52.292Z,5.50
2022-07-30T12:13:59.715Z,6.07
2022-07-30T12:16:12.636Z,5.97
2022-07-30T12:18:26.632Z,5.82
2022-07-30T12:20:32.172Z,6.25
2022-07-30T12:22:37.151Z,6.28
2022-07-30T12:24:43.037Z,6.10
2022-07-30T12:26:48.142Z,5.93
2022-07-30T12:28:52.999Z,5.68
2022-07-30T12:30:59.549Z,5.90
2022-07-30T12:33:03.978Z,5.22
2022-07-30T12:35:08.940Z,6.00
2022-07-30T12:37:16.904Z,5.50
2022-07-30T12:39:22.698Z,6.20
2022-07-30T12:41:43.868Z,5.70
2022-07-30T12:43:49.920Z,6.22
2022-07-30T12:46:00.366Z,6.18
2022-07-30T12:48:11.106Z,5.80
2022-07-30T12:50:18.719Z,5.85
2022-07-30T12:52:28.420Z,5.40
2022-07-30T12:54:34.845Z,5.75
2022-07-30T12:56:39.868Z,5.68
2022-07-30T12:58:45.793Z,6.05
2022-07-30T13:00:52.921Z,6.03
2022-07-30T13:02:58.064Z,6.10
2022-07-30T13:05:11.550Z,6.15
2022-07-30T13:07:17.624Z,5.80
2022-07-30T13:09:23.087Z,5.65
2022-07-30T13:11:29.434Z,5.82
2022-07-30T13:13:34.389Z,5.60
2022-07-30T13:15:53.861Z,6.10
2022-07-30T13:17:58.672Z,5.35
2022-07-30T13:20:03.039Z,5.72
2022-07-30T13:22:07.471Z,5.45
2022-07-30T13:24:18.111Z,5.30
2022-07-30T13:26:22.965Z,5.88
2022-07-30T13:28:29.252Z,5.53
2022-07-30T13:30:34.087Z,5.15
2022-07-30T13:32:39.811Z,5.00
2022-07-30T13:34:48.683Z,5.68
2022-07-30T13:36:52.988Z,5.13
2022-07-30T13:38:57.688Z,5.78
2022-07-30T13:41:03.101Z,4.85
2022-07-30T13:43:07.899Z,4.85
2022-07-30T13:45:12.780Z,5.05
2022-07-30T13:47:17.333Z,5.22
2022-07-30T13:49:23.478Z,5.70
2022-07-30T13:51:31.476Z,5.63
2022-07-30T13:53:36.337Z,5.95
2022-07-30T13:55:41.383Z,5.45
2022-07-30T13:57:46.180Z,5.25
2022-07-30T13:59:52.766Z,4.93
2022-07-30T14:01:57.689Z,5.35
2022-07-30T14:04:02.930Z,5.10
2022-07-30T14:06:10.881Z,5.30
2022-07-30T14:08:15.943Z,5.40
2022-07-30T14:10:22.516Z,5.43
2022-07-30T14:12:27.445Z,5.60
2022-07-30T14:14:32.352Z,5.70
2022-07-30T14:16:45.964Z,5.63
2022-07-30T14:18:50.475Z,5.63
2022-07-30T14:20:54.861Z,5.50
2022-07-30T14:23:01.195Z,6.05
2022-07-30T14:25:06.095Z,5.40
2022-07-30T14:27:10.360Z,5.72
2022-07-30T14:29:14.663Z,5.47
2022-07-30T14:31:19.810Z,4.90
2022-07-30T14:33:24.586Z,5.45
2022-07-30T14:35:28.923Z,5.57
2022-07-30T14:37:33.344Z,5.50
2022-07-30T14:39:39.196Z,5.03
2022-07-30T14:41:43.495Z,5.45
2022-07-30T14:43:47.840Z,6.03
2022-07-30T14:45:53.443Z,5.70
2022-07-30T14:47:58.005Z,5.82
2022-07-30T14:50:02.831Z,5.20
2022-07-30T14:52:07.882Z,5.70
2022-07-30T14:54:12.778Z,5.72
2022-07-30T14:56:19.431Z,5.90
2022-07-30T14:58:23.873Z,5.32
2022-07-30T15:00:31.855Z,5.50
2022-07-30T15:02:40.904Z,5.95
2022-07-30T15:04:47.084Z,5.70
2022-07-30T15:06:51.402Z,5.82
2022-07-30T15:08:55.737Z,6.28
2022-07-30T15:11:03.511Z,6.18
2022-07-30T15:13:14.532Z,5.55
2022-07-30T15:15:19.647Z,5.43
2022-07-30T15:17:27.896Z,6.10
2022-07-30T15:19:32.190Z,5.68
2022-07-30T15:21:36.483Z,5.72
2022-07-30T15:23:40.990Z,6.32
2022-07-30T15:25:45.928Z,6.20
2022-07-30T15:27:52.075Z,6.07
2022-07-30T15:29:59.783Z,5.78
2022-07-30T15:32:04.587Z,6.05
2022-07-30T15:34:11.015Z,6.18
2022-07-30T15:36:15.826Z,5.60
2022-07-30T15:38:20.198Z,5.80
2022-07-30T15:40:25.085Z,6.32
2022-07-30T15:42:30.051Z,6.47
2022-07-30T15:44:34.521Z,5.78
2022-07-30T15:46:40.323Z,6.20
2022-07-30T15:48:47.225Z,6.65
2022-07-30T15:51:03.376Z,6.90
2022-07-30T15:53:14.651Z,6.25
2022-07-30T15:55:21.853Z,6.25
2022-07-30T15:57:26.817Z,5.90
2022-07-30T15:59:31.683Z,5.90
2022-07-30T16:01:36.153Z,5.80
2022-07-30T16:03:42.592Z,5.50
2022-07-30T16:05:52.081Z,5.78
2022-07-30T16:07:57.104Z,5.80
2022-07-30T16:10:01.513Z,6.68
2022-07-30T16:12:08.158Z,6.03
2022-07-30T16:14:12.955Z,6.28
2022-07-30T16:16:17.763Z,6.30
2022-07-30T16:18:23.017Z,6.85
2022-07-30T16:20:28.758Z,7.38
2022-07-30T16:22:34.332Z,7.43
2022-07-30T16:24:38.702Z,7.50
2022-07-30T16:26:43.078Z,7.95
2022-07-30T16:28:47.727Z,7.57
2022-07-30T16:30:51.925Z,7.93
2022-07-30T16:32:56.514Z,7.43
2022-07-30T16:35:00.865Z,8.38
2022-07-30T16:37:09.697Z,9.32
2022-07-30T16:39:16.991Z,7.85
2022-07-30T16:41:21.520Z,7.80
2022-07-30T16:43:25.989Z,8.43
2022-07-30T16:45:31.216Z,8.25
2022-07-30T16:47:35.713Z,8.43
2022-07-30T16:49:40.209Z,8.57
2022-07-30T16:51:44.629Z,8.15
2022-07-30T16:53:50.649Z,8.18
2022-07-30T16:55:57.026Z,8.20
2022-07-30T16:58:01.463Z,9.30
2022-07-30T17:00:12.621Z,9.60
2022-07-30T17:02:17.018Z,8.02
2022-07-30T17:04:24.052Z,8.93
2022-07-30T17:06:33.642Z,8.77
2022-07-30T17:08:38.030Z,10.13
2022-07-30T17:10:45.042Z,9.63
2022-07-30T17:12:50.880Z,9.25
2022-07-30T17:14:59.984Z,9.35
2022-07-30T17:17:04.508Z,10.43
2022-07-30T17:19:09.498Z,10.55
2022-07-30T17:21:14.558Z,9.90
2022-07-30T17:23:21.766Z,10.32
2022-07-30T17:25:31.421Z,10.02
2022-07-30T17:27:37.359Z,11.20
2022-07-30T17:29:49.686Z,11.05
2022-07-30T17:31:55.671Z,10.75
2022-07-30T17:34:02.801Z,10.93
2022-07-30T17:36:08.622Z,10.98
2022-07-30T17:38:13.046Z,11.20
2022-07-30T17:40:30.226Z,10.13
2022-07-30T17:42:37.969Z,11.30
2022-07-30T17:44:44.106Z,10.20
2022-07-30T17:46:48.644Z,10.52
2022-07-30T17:48:53.223Z,10.23
2022-07-30T17:50:57.817Z,10.18
2022-07-30T17:53:03.743Z,11.02
2022-07-30T17:55:12.585Z,11.75
2022-07-30T17:57:17.313Z,10.60
2022-07-30T17:59:23.187Z,10.45
2022-07-30T18:01:27.435Z,10.68
2022-07-30T18:03:32.333Z,10.57
2022-07-30T18:05:39.663Z,10.82
2022-07-30T18:07:44.693Z,10.13
2022-07-30T18:09:49.023Z,10.88
2022-07-30T18:11:53.505Z,10.18
2022-07-30T18:13:58.069Z,10.45
2022-07-30T18:16:04.276Z,10.27
2022-07-30T18:18:08.903Z,10.50
2022-07-30T18:20:13.882Z,11.05
2022-07-30T18:22:28.222Z,10.32
2022-07-30T18:24:34.337Z,10.25
2022-07-30T18:26:47.980Z,10.40
2022-07-30T18:28:55.933Z,9.60
2022-07-30T18:31:01.249Z,10.63
2022-07-30T18:33:06.958Z,9.88
2022-07-30T18:35:14.413Z,10.13
2022-07-30T18:37:19.121Z,9.82
2022-07-30T18:39:23.588Z,10.15
2022-07-30T18:41:29.499Z,10.05
2022-07-30T18:43:47.763Z,9.93
2022-07-30T18:45:53.046Z,9.40
2022-07-30T18:47:57.486Z,9.18
2022-07-30T18:50:03.216Z,9.57
2022-07-30T18:52:08.561Z,9.00
2022-07-30T18:54:12.923Z,9.50
2022-07-30T18:56:17.418Z,10.23
2022-07-30T18:58:21.673Z,9.48
2022-07-30T19:00:34.719Z,9.20
2022-07-30T19:02:40.580Z,9.43
2022-07-30T19:04:45.151Z,9.38
2022-07-30T19:06:50.863Z,9.88
2022-07-30T19:09:03.483Z,8.95
2022-07-30T19:11:07.907Z,9.25
2022-07-30T19:13:12.361Z,9.05
2022-07-30T19:15:16.845Z,8.43
2022-07-30T19:17:21.267Z,10.70
2022-07-30T19:19:47.492Z,9.30
2022-07-30T19:21:53.494Z,9.27
2022-07-30T19:23:57.893Z,8.88
2022-07-30T19:26:02.260Z,9.52
2022-07-30T19:28:07.564Z,9.05
2022-07-30T19:30:13.496Z,9.43
2022-07-30T19:32:17.919Z,9.43
2022-07-30T19:34:25.011Z,9.73
2022-07-30T19:36:30.337Z,9.30
2022-07-30T19:38:37.407Z,9.80
2022-07-30T19:40:42.622Z,9.30
2022-07-30T19:42:47.349Z,9.55
2022-07-30T19:45:01.210Z,9.48
2022-07-30T19:47:08.481Z,8.82
2022-07-30T19:49:13.123Z,9.02
2022-07-30T19:51:21.085Z,8.98
2022-07-30T19:53:31.220Z,8.77
2022-07-30T19:55:39.867Z,9.75
2022-07-30T19:57:54.269Z,11.07
2022-07-30T20:02:35.590Z,9.15
2022-07-30T20:04:39.949Z,9.67
2022-07-30T20:06:49.236Z,9.38
2022-07-30T20:08:53.607Z,9.52
2022-07-30T20:11:01.521Z,9.48
2022-07-30T20:13:06.444Z,9.80
2022-07-30T20:15:14.807Z,10.07
2022-07-30T20:17:19.470Z,9.52
2022-07-30T20:19:23.989Z,9.77
2022-07-30T20:21:56.521Z,10.07
2022-07-30T20:24:00.328Z,10.13
2022-07-30T20:26:12.535Z,10.23
2022-07-30T20:28:17.493Z,10.80
2022-07-30T20:30:25.389Z,9.90
2022-07-30T20:32:30.121Z,10.13
2022-07-30T20:34:35.778Z,10.00
2022-07-30T20:36:40.682Z,9.95
2022-07-30T20:38:47.272Z,10.38
2022-07-30T20:40:53.330Z,10.77
2022-07-30T20:43:02.359Z,10.27
2022-07-30T20:45:10.870Z,10.07
2022-07-30T20:47:38.573Z,10.50
2022-07-30T20:49:43.186Z,10.63
2022-07-30T20:54:17.313Z,10.23
2022-07-30T20:56:22.700Z,10.32
2022-07-30T20:58:32.003Z,9.75
2022-07-30T21:00:38.865Z,9.63
2022-07-30T21:02:43.611Z,9.73
2022-07-30T21:04:49.323Z,10.55
2022-07-30T21:06:53.642Z,9.90
2022-07-30T21:08:58.460Z,9.15
2022-07-30T21:11:04.116Z,9.85
2022-07-30T21:13:09.764Z,11.18
2022-07-30T21:15:23.634Z,10.80
2022-07-30T21:17:42.777Z,10.70
2022-07-30T21:19:47.578Z,9.75
2022-07-30T21:21:52.431Z,9.93
2022-07-30T21:23:56.805Z,9.63
2022-07-30T21:26:05.974Z,10.50
2022-07-30T21:28:11.392Z,9.20
2022-07-30T21:30:34.125Z,10.85
2022-07-30T21:32:38.613Z,10.13
2022-07-30T21:34:42.846Z,10.68
2022-07-30T21:36:49.228Z,9.98
2022-07-30T21:38:53.760Z,11.05
2022-07-30T21:40:58.011Z,10.55
2022-07-30T21:43:02.293Z,11.10
2022-07-30T21:45:13.063Z,10.02
2022-07-30T21:47:18.746Z,10.43
2022-07-30T21:49:23.713Z,10.38
2022-07-30T21:51:29.081Z,10.20
2022-07-30T21:53:45.304Z,9.82
2022-07-30T21:55:52.738Z,10.30
2022-07-30T21:57:57.724Z,9.95
2022-07-30T22:00:02.054Z,9.88
2022-07-30T22:02:19.013Z,9.80
2022-07-30T22:04:26.087Z,10.93
2022-07-30T22:06:31.645Z,10.93
2022-07-30T22:08:37.613Z,10.38
2022-07-30T22:10:44.120Z,10.38
2022-07-30T22:12:51.099Z,9.95
2022-07-30T22:14:55.501Z,10.60
2022-07-30T22:17:00.529Z,11.10
2022-07-30T22:19:08.829Z,10.15
2022-07-30T22:21:16.992Z,10.02
2022-07-30T22:23:22.624Z,9.90
2022-07-30T22:25:41.734Z,9.93
2022-07-30T22:27:56.286Z,10.95
2022-07-30T22:30:01.558Z,9.65
2022-07-30T22:32:08.650Z,9.65
2022-07-30T22:34:12.959Z,9.40
2022-07-30T22:36:24.645Z,10.23
2022-07-30T22:38:30.264Z,10.23
2022-07-30T22:40:35.387Z,9.35
2022-07-30T22:42:49.787Z,9.55
2022-07-30T22:44:55.518Z,9.18
2022-07-30T22:46:59.979Z,9.52
2022-07-30T22:49:05.174Z,9.57
2022-07-30T22:51:11.883Z,8.20
2022-07-30T22:54:03.630Z,7.90
2022-07-30T22:55:42.440Z,7.88
2022-07-30T22:57:47.990Z,8.15
2022-07-30T23:00:00.326Z,8.40
2022-07-30T23:02:06.115Z,8.70
2022-07-30T23:04:18.369Z,7.85
2022-07-30T23:06:22.836Z,7.82
2022-07-30T23:08:29.689Z,8.15
2022-07-30T23:10:34.907Z,8.10
2022-07-30T23:12:15.622Z,9.13
2022-07-30T23:12:26.456Z,10.90
2022-07-30T23:12:39.422Z,7.93
2022-07-30T23:14:44.050Z,8.50
2022-07-30T23:16:50.171Z,8.77
2022-07-30T23:18:57.408Z,8.30
2022-07-30T23:21:02.073Z,8.85
2022-07-30T23:23:06.406Z,8.93
2022-07-30T23:25:13.204Z,8.88
2022-07-30T23:27:17.880Z,8.27
2022-07-30T23:29:22.276Z,8.77
2022-07-30T23:31:26.993Z,7.82
2022-07-30T23:33:32.217Z,8.48
2022-07-30T23:35:36.482Z,8.25
2022-07-30T23:37:48.439Z,8.80
2022-07-30T23:39:54.231Z,8.68
2022-07-30T23:42:00.101Z,9.15
2022-07-30T23:44:04.527Z,9.70
2022-07-30T23:46:09.773Z,9.00
2022-07-30T23:48:15.676Z,9.32
2022-07-30T23:50:20.006Z,9.80
2022-07-30T23:52:24.383Z,10.27
2022-07-30T23:54:29.603Z,10.05
2022-07-30T23:56:33.988Z,10.85
2022-07-30T23:58:40.716Z,10.48
